sensor_id;sensor_type;location;lat;lon;timestamp;P1;durP1;ratioP1;P2;durP2;ratioP2
40635;SDS011;26642;55.766;37.828;2023-06-14T00:02:11;9.10;;;4.78;;
40635;SDS011;26642;55.766;37.828;2023-06-14T00:04:37;7.38;;;4.38;;
40635;SDS011;26642;55.766;37.828;2023-06-14T00:07:05;8.82;;;4.72;;
40635;SDS011;26642;55.766;37.828;2023-06-14T00:09:34;13.35;;;4.95;;
40635;SDS011;26642;55.766;37.828;2023-06-14T00:12:00;7.00;;;5.13;;
40635;SDS011;26642;55.766;37.828;2023-06-14T00:14:26;8.38;;;5.05;;
40635;SDS011;26642;55.766;37.828;2023-06-14T00:16:52;8.43;;;5.70;;
40635;SDS011;26642;55.766;37.828;2023-06-14T00:19:19;10.27;;;5.20;;
40635;SDS011;26642;55.766;37.828;2023-06-14T00:21:46;9.70;;;5.75;;
40635;SDS011;26642;55.766;37.828;2023-06-14T00:24:12;7.30;;;5.07;;
40635;SDS011;26642;55.766;37.828;2023-06-14T00:26:38;6.38;;;5.03;;
40635;SDS011;26642;55.766;37.828;2023-06-14T00:29:03;10.48;;;5.45;;
40635;SDS011;26642;55.766;37.828;2023-06-14T00:31:29;6.40;;;4.70;;
40635;SDS011;26642;55.766;37.828;2023-06-14T00:33:56;8.05;;;4.88;;
40635;SDS011;26642;55.766;37.828;2023-06-14T00:36:22;6.75;;;4.63;;
40635;SDS011;26642;55.766;37.828;2023-06-14T00:38:47;7.32;;;4.40;;
40635;SDS011;26642;55.766;37.828;2023-06-14T00:41:13;8.60;;;4.93;;
40635;SDS011;26642;55.766;37.828;2023-06-14T00:43:41;6.28;;;4.60;;
40635;SDS011;26642;55.766;37.828;2023-06-14T00:46:07;7.95;;;5.10;;
40635;SDS011;26642;55.766;37.828;2023-06-14T00:48:33;7.78;;;5.18;;
40635;SDS011;26642;55.766;37.828;2023-06-14T00:51:00;8.75;;;5.15;;
40635;SDS011;26642;55.766;37.828;2023-06-14T00:53:29;7.72;;;4.53;;
40635;SDS011;26642;55.766;37.828;2023-06-14T00:55:59;7.75;;;5.32;;
40635;SDS011;26642;55.766;37.828;2023-06-14T00:58:25;8.70;;;5.30;;
40635;SDS011;26642;55.766;37.828;2023-06-14T01:00:52;7.72;;;5.57;;
40635;SDS011;26642;55.766;37.828;2023-06-14T01:03:19;8.93;;;5.07;;
40635;SDS011;26642;55.766;37.828;2023-06-14T01:05:49;8.45;;;5.30;;
40635;SDS011;26642;55.766;37.828;2023-06-14T01:11:12;8.25;;;4.85;;
40635;SDS011;26642;55.766;37.828;2023-06-14T01:13:47;6.78;;;4.63;;
40635;SDS011;26642;55.766;37.828;2023-06-14T01:16:15;7.78;;;4.72;;
40635;SDS011;26642;55.766;37.828;2023-06-14T01:18:42;7.78;;;5.10;;
40635;SDS011;26642;55.766;37.828;2023-06-14T01:21:23;7.38;;;5.45;;
40635;SDS011;26642;55.766;37.828;2023-06-14T01:23:51;7.07;;;5.00;;
40635;SDS011;26642;55.766;37.828;2023-06-14T01:26:21;6.60;;;4.47;;
40635;SDS011;26642;55.766;37.828;2023-06-14T01:28:50;7.00;;;4.65;;
40635;SDS011;26642;55.766;37.828;2023-06-14T01:31:19;9.05;;;5.00;;
40635;SDS011;26642;55.766;37.828;2023-06-14T01:33:47;6.95;;;5.35;;
40635;SDS011;26642;55.766;37.828;2023-06-14T01:36:16;6.82;;;5.60;;
40635;SDS011;26642;55.766;37.828;2023-06-14T01:38:44;9.68;;;5.68;;
40635;SDS011;26642;55.766;37.828;2023-06-14T01:41:11;10.73;;;6.50;;
40635;SDS011;26642;55.766;37.828;2023-06-14T01:43:38;9.35;;;6.55;;
40635;SDS011;26642;55.766;37.828;2023-06-14T01:46:05;13.93;;;7.13;;
40635;SDS011;26642;55.766;37.828;2023-06-14T01:48:33;10.77;;;7.07;;
40635;SDS011;26642;55.766;37.828;2023-06-14T01:51:00;11.77;;;7.32;;
40635;SDS011;26642;55.766;37.828;2023-06-14T01:53:26;9.70;;;7.22;;
40635;SDS011;26642;55.766;37.828;2023-06-14T01:55:52;9.32;;;6.63;;
40635;SDS011;26642;55.766;37.828;2023-06-14T01:58:19;13.38;;;7.28;;
40635;SDS011;26642;55.766;37.828;2023-06-14T02:00:46;13.00;;;7.50;;
40635;SDS011;26642;55.766;37.828;2023-06-14T02:03:12;11.02;;;7.00;;
40635;SDS011;26642;55.766;37.828;2023-06-14T02:05:38;11.20;;;6.63;;
40635;SDS011;26642;55.766;37.828;2023-06-14T02:08:05;9.30;;;6.85;;
40635;SDS011;26642;55.766;37.828;2023-06-14T02:10:31;11.95;;;6.95;;
40635;SDS011;26642;55.766;37.828;2023-06-14T02:12:57;10.80;;;6.95;;
40635;SDS011;26642;55.766;37.828;2023-06-14T02:15:23;9.73;;;6.75;;
40635;SDS011;26642;55.766;37.828;2023-06-14T02:17:49;9.93;;;6.80;;
40635;SDS011;26642;55.766;37.828;2023-06-14T02:20:16;11.20;;;6.85;;
40635;SDS011;26642;55.766;37.828;2023-06-14T02:22:42;10.43;;;7.15;;
40635;SDS011;26642;55.766;37.828;2023-06-14T02:25:09;13.50;;;7.05;;
40635;SDS011;26642;55.766;37.828;2023-06-14T02:27:35;8.65;;;6.65;;
40635;SDS011;26642;55.766;37.828;2023-06-14T02:30:02;15.10;;;6.93;;
40635;SDS011;26642;55.766;37.828;2023-06-14T02:32:31;9.80;;;6.47;;
40635;SDS011;26642;55.766;37.828;2023-06-14T02:34:59;9.82;;;5.90;;
40635;SDS011;26642;55.766;37.828;2023-06-14T02:37:25;8.43;;;5.95;;
40635;SDS011;26642;55.766;37.828;2023-06-14T02:39:52;8.07;;;6.00;;
40635;SDS011;26642;55.766;37.828;2023-06-14T02:42:18;13.60;;;6.60;;
40635;SDS011;26642;55.766;37.828;2023-06-14T02:44:44;9.50;;;6.40;;
40635;SDS011;26642;55.766;37.828;2023-06-14T02:47:11;10.52;;;6.75;;
40635;SDS011;26642;55.766;37.828;2023-06-14T02:49:37;12.73;;;6.80;;
40635;SDS011;26642;55.766;37.828;2023-06-14T02:52:03;11.15;;;6.88;;
40635;SDS011;26642;55.766;37.828;2023-06-14T02:54:30;9.88;;;6.88;;
40635;SDS011;26642;55.766;37.828;2023-06-14T02:56:58;10.32;;;7.82;;
40635;SDS011;26642;55.766;37.828;2023-06-14T02:59:24;10.80;;;7.35;;
40635;SDS011;26642;55.766;37.828;2023-06-14T03:01:53;10.75;;;7.57;;
40635;SDS011;26642;55.766;37.828;2023-06-14T03:04:19;9.20;;;7.30;;
40635;SDS011;26642;55.766;37.828;2023-06-14T03:06:46;10.13;;;7.50;;
40635;SDS011;26642;55.766;37.828;2023-06-14T03:09:17;9.88;;;6.68;;
40635;SDS011;26642;55.766;37.828;2023-06-14T03:11:45;11.23;;;7.60;;
40635;SDS011;26642;55.766;37.828;2023-06-14T03:14:11;11.98;;;7.28;;
40635;SDS011;26642;55.766;37.828;2023-06-14T03:16:39;8.90;;;6.97;;
40635;SDS011;26642;55.766;37.828;2023-06-14T03:19:08;7.97;;;7.03;;
40635;SDS011;26642;55.766;37.828;2023-06-14T03:21:34;11.63;;;7.10;;
40635;SDS011;26642;55.766;37.828;2023-06-14T03:24:02;11.30;;;7.32;;
40635;SDS011;26642;55.766;37.828;2023-06-14T03:26:29;9.32;;;6.75;;
40635;SDS011;26642;55.766;37.828;2023-06-14T03:28:58;12.68;;;7.28;;
40635;SDS011;26642;55.766;37.828;2023-06-14T03:31:24;8.05;;;6.40;;
40635;SDS011;26642;55.766;37.828;2023-06-14T03:33:51;10.93;;;6.60;;
40635;SDS011;26642;55.766;37.828;2023-06-14T03:36:18;10.75;;;7.45;;
40635;SDS011;26642;55.766;37.828;2023-06-14T03:38:52;9.73;;;7.25;;
40635;SDS011;26642;55.766;37.828;2023-06-14T03:41:18;9.13;;;6.95;;
40635;SDS011;26642;55.766;37.828;2023-06-14T03:43:44;11.10;;;6.78;;
40635;SDS011;26642;55.766;37.828;2023-06-14T03:46:10;8.52;;;6.32;;
40635;SDS011;26642;55.766;37.828;2023-06-14T03:48:36;8.55;;;6.70;;
40635;SDS011;26642;55.766;37.828;2023-06-14T03:51:02;8.40;;;6.70;;
40635;SDS011;26642;55.766;37.828;2023-06-14T03:53:29;10.15;;;6.20;;
40635;SDS011;26642;55.766;37.828;2023-06-14T03:55:56;8.32;;;6.50;;
40635;SDS011;26642;55.766;37.828;2023-06-14T03:58:30;8.80;;;5.90;;
40635;SDS011;26642;55.766;37.828;2023-06-14T04:00:57;8.65;;;5.85;;
40635;SDS011;26642;55.766;37.828;2023-06-14T04:03:24;8.18;;;6.18;;
40635;SDS011;26642;55.766;37.828;2023-06-14T04:05:50;8.32;;;5.80;;
40635;SDS011;26642;55.766;37.828;2023-06-14T04:08:18;13.38;;;6.47;;
40635;SDS011;26642;55.766;37.828;2023-06-14T04:10:44;8.82;;;5.80;;
40635;SDS011;26642;55.766;37.828;2023-06-14T04:13:10;6.95;;;6.25;;
40635;SDS011;26642;55.766;37.828;2023-06-14T04:15:38;8.35;;;5.85;;
40635;SDS011;26642;55.766;37.828;2023-06-14T04:18:08;7.65;;;5.88;;
40635;SDS011;26642;55.766;37.828;2023-06-14T04:20:34;10.60;;;6.55;;
40635;SDS011;26642;55.766;37.828;2023-06-14T04:23:11;6.25;;;4.93;;
40635;SDS011;26642;55.766;37.828;2023-06-14T04:25:44;10.00;;;5.85;;
40635;SDS011;26642;55.766;37.828;2023-06-14T04:28:11;8.50;;;5.70;;
40635;SDS011;26642;55.766;37.828;2023-06-14T04:30:42;7.03;;;5.00;;
40635;SDS011;26642;55.766;37.828;2023-06-14T04:33:08;7.00;;;5.50;;
40635;SDS011;26642;55.766;37.828;2023-06-14T04:35:35;6.75;;;5.20;;
40635;SDS011;26642;55.766;37.828;2023-06-14T04:38:03;8.15;;;5.47;;
40635;SDS011;26642;55.766;37.828;2023-06-14T04:40:31;9.75;;;5.30;;
40635;SDS011;26642;55.766;37.828;2023-06-14T04:42:59;6.68;;;5.00;;
40635;SDS011;26642;55.766;37.828;2023-06-14T04:45:26;8.10;;;5.68;;
40635;SDS011;26642;55.766;37.828;2023-06-14T04:48:00;6.25;;;5.03;;
40635;SDS011;26642;55.766;37.828;2023-06-14T04:50:27;6.22;;;4.72;;
40635;SDS011;26642;55.766;37.828;2023-06-14T04:52:55;6.63;;;5.03;;
40635;SDS011;26642;55.766;37.828;2023-06-14T04:55:22;7.40;;;4.80;;
40635;SDS011;26642;55.766;37.828;2023-06-14T04:57:50;7.20;;;4.68;;
40635;SDS011;26642;55.766;37.828;2023-06-14T05:00:19;5.35;;;4.75;;
40635;SDS011;26642;55.766;37.828;2023-06-14T05:02:46;4.70;;;4.20;;
40635;SDS011;26642;55.766;37.828;2023-06-14T05:05:15;6.00;;;4.80;;
40635;SDS011;26642;55.766;37.828;2023-06-14T05:07:42;5.78;;;4.38;;
40635;SDS011;26642;55.766;37.828;2023-06-14T05:10:08;4.70;;;4.15;;
40635;SDS011;26642;55.766;37.828;2023-06-14T05:12:35;4.93;;;4.15;;
40635;SDS011;26642;55.766;37.828;2023-06-14T05:15:04;5.32;;;3.70;;
40635;SDS011;26642;55.766;37.828;2023-06-14T05:17:30;4.95;;;3.90;;
40635;SDS011;26642;55.766;37.828;2023-06-14T05:19:56;6.47;;;4.05;;
40635;SDS011;26642;55.766;37.828;2023-06-14T05:22:23;4.30;;;3.90;;
40635;SDS011;26642;55.766;37.828;2023-06-14T05:24:49;6.32;;;4.10;;
40635;SDS011;26642;55.766;37.828;2023-06-14T05:27:16;4.47;;;3.42;;
40635;SDS011;26642;55.766;37.828;2023-06-14T05:29:42;4.65;;;3.70;;
40635;SDS011;26642;55.766;37.828;2023-06-14T05:32:08;4.43;;;3.88;;
40635;SDS011;26642;55.766;37.828;2023-06-14T05:34:34;5.90;;;3.95;;
40635;SDS011;26642;55.766;37.828;2023-06-14T05:37:00;4.80;;;3.42;;
40635;SDS011;26642;55.766;37.828;2023-06-14T05:39:26;4.68;;;3.42;;
40635;SDS011;26642;55.766;37.828;2023-06-14T05:41:52;4.20;;;3.10;;
40635;SDS011;26642;55.766;37.828;2023-06-14T05:44:18;3.75;;;3.30;;
40635;SDS011;26642;55.766;37.828;2023-06-14T05:46:44;4.85;;;3.72;;
40635;SDS011;26642;55.766;37.828;2023-06-14T05:49:10;5.70;;;3.50;;
40635;SDS011;26642;55.766;37.828;2023-06-14T05:51:37;5.93;;;3.38;;
40635;SDS011;26642;55.766;37.828;2023-06-14T05:54:03;4.53;;;3.60;;
40635;SDS011;26642;55.766;37.828;2023-06-14T05:56:29;3.55;;;3.25;;
40635;SDS011;26642;55.766;37.828;2023-06-14T05:58:55;3.25;;;2.95;;
40635;SDS011;26642;55.766;37.828;2023-06-14T06:01:21;4.50;;;2.70;;
40635;SDS011;26642;55.766;37.828;2023-06-14T06:03:47;3.33;;;2.67;;
40635;SDS011;26642;55.766;37.828;2023-06-14T06:06:13;5.47;;;3.05;;
40635;SDS011;26642;55.766;37.828;2023-06-14T06:08:39;3.38;;;2.70;;
40635;SDS011;26642;55.766;37.828;2023-06-14T06:11:05;3.67;;;2.88;;
40635;SDS011;26642;55.766;37.828;2023-06-14T06:13:31;4.18;;;2.88;;
40635;SDS011;26642;55.766;37.828;2023-06-14T06:15:58;3.25;;;2.53;;
40635;SDS011;26642;55.766;37.828;2023-06-14T06:18:24;3.85;;;2.60;;
40635;SDS011;26642;55.766;37.828;2023-06-14T06:20:49;3.58;;;2.70;;
40635;SDS011;26642;55.766;37.828;2023-06-14T06:23:16;4.10;;;2.78;;
40635;SDS011;26642;55.766;37.828;2023-06-14T06:25:42;4.30;;;2.65;;
40635;SDS011;26642;55.766;37.828;2023-06-14T06:28:08;3.97;;;2.60;;
40635;SDS011;26642;55.766;37.828;2023-06-14T06:30:34;2.13;;;1.92;;
40635;SDS011;26642;55.766;37.828;2023-06-14T06:33:01;3.75;;;2.30;;
40635;SDS011;26642;55.766;37.828;2023-06-14T06:35:28;3.85;;;2.40;;
40635;SDS011;26642;55.766;37.828;2023-06-14T06:37:55;2.53;;;2.10;;
40635;SDS011;26642;55.766;37.828;2023-06-14T06:40:22;4.45;;;2.45;;
40635;SDS011;26642;55.766;37.828;2023-06-14T06:42:48;1.95;;;1.85;;
40635;SDS011;26642;55.766;37.828;2023-06-14T06:45:17;4.40;;;2.30;;
40635;SDS011;26642;55.766;37.828;2023-06-14T06:47:43;2.40;;;2.20;;
40635;SDS011;26642;55.766;37.828;2023-06-14T06:50:09;3.70;;;2.10;;
40635;SDS011;26642;55.766;37.828;2023-06-14T06:52:35;2.60;;;2.40;;
40635;SDS011;26642;55.766;37.828;2023-06-14T06:55:01;2.97;;;2.35;;
40635;SDS011;26642;55.766;37.828;2023-06-14T06:57:28;4.47;;;2.35;;
40635;SDS011;26642;55.766;37.828;2023-06-14T06:59:54;2.40;;;2.08;;
40635;SDS011;26642;55.766;37.828;2023-06-14T07:02:20;3.30;;;1.98;;
40635;SDS011;26642;55.766;37.828;2023-06-14T07:04:46;7.25;;;2.33;;
40635;SDS011;26642;55.766;37.828;2023-06-14T07:07:12;3.85;;;2.28;;
40635;SDS011;26642;55.766;37.828;2023-06-14T07:09:38;3.83;;;2.05;;
40635;SDS011;26642;55.766;37.828;2023-06-14T07:12:06;2.97;;;1.95;;
40635;SDS011;26642;55.766;37.828;2023-06-14T07:14:33;2.10;;;1.90;;
40635;SDS011;26642;55.766;37.828;2023-06-14T07:16:59;3.05;;;2.17;;
40635;SDS011;26642;55.766;37.828;2023-06-14T07:19:25;3.20;;;1.90;;
40635;SDS011;26642;55.766;37.828;2023-06-14T07:21:51;2.63;;;1.70;;
40635;SDS011;26642;55.766;37.828;2023-06-14T07:24:19;2.55;;;1.85;;
40635;SDS011;26642;55.766;37.828;2023-06-14T07:26:46;2.10;;;1.90;;
40635;SDS011;26642;55.766;37.828;2023-06-14T07:29:13;2.33;;;1.98;;
40635;SDS011;26642;55.766;37.828;2023-06-14T07:31:40;5.18;;;2.25;;
40635;SDS011;26642;55.766;37.828;2023-06-14T07:34:06;3.63;;;1.95;;
40635;SDS011;26642;55.766;37.828;2023-06-14T07:36:32;2.97;;;1.80;;
40635;SDS011;26642;55.766;37.828;2023-06-14T07:38:58;2.63;;;1.90;;
40635;SDS011;26642;55.766;37.828;2023-06-14T07:41:24;2.08;;;1.88;;
40635;SDS011;26642;55.766;37.828;2023-06-14T07:43:50;2.47;;;2.10;;
40635;SDS011;26642;55.766;37.828;2023-06-14T07:46:16;2.67;;;1.92;;
40635;SDS011;26642;55.766;37.828;2023-06-14T07:48:43;3.65;;;2.25;;
40635;SDS011;26642;55.766;37.828;2023-06-14T07:51:09;4.93;;;2.20;;
40635;SDS011;26642;55.766;37.828;2023-06-14T07:53:35;2.88;;;2.13;;
40635;SDS011;26642;55.766;37.828;2023-06-14T07:56:01;2.05;;;1.90;;
40635;SDS011;26642;55.766;37.828;2023-06-14T07:58:27;1.92;;;1.83;;
40635;SDS011;26642;55.766;37.828;2023-06-14T08:00:53;3.28;;;2.13;;
40635;SDS011;26642;55.766;37.828;2023-06-14T08:03:20;2.17;;;1.90;;
40635;SDS011;26642;55.766;37.828;2023-06-14T08:05:45;2.78;;;1.90;;
40635;SDS011;26642;55.766;37.828;2023-06-14T08:08:11;3.08;;;1.90;;
40635;SDS011;26642;55.766;37.828;2023-06-14T08:10:38;3.40;;;2.00;;
40635;SDS011;26642;55.766;37.828;2023-06-14T08:13:04;2.38;;;2.03;;
40635;SDS011;26642;55.766;37.828;2023-06-14T08:15:30;2.47;;;1.90;;
40635;SDS011;26642;55.766;37.828;2023-06-14T08:17:56;4.45;;;2.00;;
40635;SDS011;26642;55.766;37.828;2023-06-14T08:20:24;2.88;;;1.88;;
40635;SDS011;26642;55.766;37.828;2023-06-14T08:23:01;2.78;;;2.10;;
40635;SDS011;26642;55.766;37.828;2023-06-14T08:25:30;3.80;;;1.92;;
40635;SDS011;26642;55.766;37.828;2023-06-14T08:27:56;2.22;;;1.92;;
40635;SDS011;26642;55.766;37.828;2023-06-14T08:30:22;4.68;;;2.10;;
40635;SDS011;26642;55.766;37.828;2023-06-14T08:32:48;2.70;;;2.20;;
40635;SDS011;26642;55.766;37.828;2023-06-14T08:35:14;7.05;;;2.55;;
40635;SDS011;26642;55.766;37.828;2023-06-14T08:37:41;2.10;;;1.77;;
40635;SDS011;26642;55.766;37.828;2023-06-14T08:40:29;2.10;;;2.00;;
40635;SDS011;26642;55.766;37.828;2023-06-14T08:42:54;2.33;;;2.13;;
40635;SDS011;26642;55.766;37.828;2023-06-14T08:45:21;2.53;;;2.20;;
40635;SDS011;26642;55.766;37.828;2023-06-14T08:47:48;2.60;;;2.40;;
40635;SDS011;26642;55.766;37.828;2023-06-14T08:50:22;3.38;;;2.50;;
40635;SDS011;26642;55.766;37.828;2023-06-14T08:52:57;4.32;;;2.22;;
40635;SDS011;26642;55.766;37.828;2023-06-14T08:55:28;4.68;;;2.35;;
40635;SDS011;26642;55.766;37.828;2023-06-14T08:57:55;3.05;;;2.40;;
40635;SDS011;26642;55.766;37.828;2023-06-14T09:00:23;3.72;;;2.28;;
40635;SDS011;26642;55.766;37.828;2023-06-14T09:02:51;3.67;;;2.22;;
40635;SDS011;26642;55.766;37.828;2023-06-14T09:05:25;2.60;;;2.30;;
40635;SDS011;26642;55.766;37.828;2023-06-14T09:07:52;5.50;;;2.75;;
40635;SDS011;26642;55.766;37.828;2023-06-14T09:10:21;3.33;;;2.70;;
40635;SDS011;26642;55.766;37.828;2023-06-14T09:12:48;5.18;;;2.70;;
40635;SDS011;26642;55.766;37.828;2023-06-14T09:15:14;3.67;;;2.58;;
40635;SDS011;26642;55.766;37.828;2023-06-14T09:17:40;3.38;;;2.50;;
40635;SDS011;26642;55.766;37.828;2023-06-14T09:20:07;5.28;;;2.40;;
40635;SDS011;26642;55.766;37.828;2023-06-14T09:22:36;3.00;;;2.40;;
40635;SDS011;26642;55.766;37.828;2023-06-14T09:25:03;6.03;;;2.75;;
40635;SDS011;26642;55.766;37.828;2023-06-14T09:27:30;2.80;;;2.50;;
40635;SDS011;26642;55.766;37.828;2023-06-14T09:29:56;3.92;;;2.53;;
40635;SDS011;26642;55.766;37.828;2023-06-14T09:32:22;3.33;;;2.40;;
40635;SDS011;26642;55.766;37.828;2023-06-14T09:34:49;4.68;;;2.65;;
40635;SDS011;26642;55.766;37.828;2023-06-14T09:37:30;3.30;;;2.25;;
40635;SDS011;26642;55.766;37.828;2023-06-14T09:39:57;3.40;;;2.30;;
40635;SDS011;26642;55.766;37.828;2023-06-14T09:42:24;4.95;;;2.58;;
40635;SDS011;26642;55.766;37.828;2023-06-14T09:44:51;3.50;;;2.30;;
40635;SDS011;26642;55.766;37.828;2023-06-14T09:47:19;3.17;;;2.80;;
40635;SDS011;26642;55.766;37.828;2023-06-14T09:49:45;3.67;;;2.65;;
40635;SDS011;26642;55.766;37.828;2023-06-14T09:52:15;3.42;;;2.60;;
40635;SDS011;26642;55.766;37.828;2023-06-14T09:54:43;5.22;;;2.50;;
40635;SDS011;26642;55.766;37.828;2023-06-14T09:57:14;2.88;;;2.30;;
40635;SDS011;26642;55.766;37.828;2023-06-14T09:59:43;2.60;;;2.35;;
40635;SDS011;26642;55.766;37.828;2023-06-14T10:07:52;4.28;;;2.72;;
40635;SDS011;26642;55.766;37.828;2023-06-14T10:10:22;2.88;;;2.50;;
40635;SDS011;26642;55.766;37.828;2023-06-14T10:12:48;5.00;;;2.60;;
40635;SDS011;26642;55.766;37.828;2023-06-14T10:15:19;3.75;;;2.60;;
40635;SDS011;26642;55.766;37.828;2023-06-14T10:17:52;6.47;;;2.47;;
40635;SDS011;26642;55.766;37.828;2023-06-14T10:23:17;3.45;;;2.45;;
40635;SDS011;26642;55.766;37.828;2023-06-14T10:25:49;5.13;;;2.40;;
40635;SDS011;26642;55.766;37.828;2023-06-14T10:28:19;3.88;;;2.58;;
40635;SDS011;26642;55.766;37.828;2023-06-14T10:33:36;2.80;;;2.55;;
40635;SDS011;26642;55.766;37.828;2023-06-14T10:41:37;6.32;;;3.67;;
40635;SDS011;26642;55.766;37.828;2023-06-14T10:44:37;5.68;;;3.20;;
40635;SDS011;26642;55.766;37.828;2023-06-14T10:46:58;3.75;;;3.08;;
40635;SDS011;26642;55.766;37.828;2023-06-14T10:52:14;4.82;;;2.90;;
40635;SDS011;26642;55.766;37.828;2023-06-14T10:57:29;4.72;;;2.50;;
40635;SDS011;26642;55.766;37.828;2023-06-14T11:00:03;2.95;;;2.45;;
40635;SDS011;26642;55.766;37.828;2023-06-14T11:05:19;4.47;;;2.85;;
40635;SDS011;26642;55.766;37.828;2023-06-14T11:10:36;3.55;;;2.78;;
40635;SDS011;26642;55.766;37.828;2023-06-14T11:13:03;2.78;;;2.55;;
40635;SDS011;26642;55.766;37.828;2023-06-14T11:15:30;3.00;;;2.30;;
40635;SDS011;26642;55.766;37.828;2023-06-14T11:17:56;3.25;;;2.45;;
40635;SDS011;26642;55.766;37.828;2023-06-14T11:20:25;4.95;;;2.22;;
40635;SDS011;26642;55.766;37.828;2023-06-14T11:22:53;3.03;;;2.40;;
40635;SDS011;26642;55.766;37.828;2023-06-14T11:25:19;3.65;;;2.25;;
40635;SDS011;26642;55.766;37.828;2023-06-14T11:27:46;4.32;;;2.30;;
40635;SDS011;26642;55.766;37.828;2023-06-14T11:30:14;5.72;;;2.72;;
40635;SDS011;26642;55.766;37.828;2023-06-14T11:32:40;3.50;;;2.42;;
40635;SDS011;26642;55.766;37.828;2023-06-14T11:35:07;3.40;;;2.50;;
40635;SDS011;26642;55.766;37.828;2023-06-14T11:37:35;5.20;;;2.72;;
40635;SDS011;26642;55.766;37.828;2023-06-14T11:40:06;4.47;;;2.63;;
40635;SDS011;26642;55.766;37.828;2023-06-14T11:42:35;3.53;;;2.60;;
40635;SDS011;26642;55.766;37.828;2023-06-14T11:45:02;6.25;;;2.70;;
40635;SDS011;26642;55.766;37.828;2023-06-14T11:47:31;3.30;;;2.38;;
40635;SDS011;26642;55.766;37.828;2023-06-14T11:50:02;3.30;;;2.50;;
40635;SDS011;26642;55.766;37.828;2023-06-14T11:52:29;2.75;;;2.33;;
40635;SDS011;26642;55.766;37.828;2023-06-14T11:54:56;3.10;;;2.60;;
40635;SDS011;26642;55.766;37.828;2023-06-14T11:57:23;4.00;;;2.42;;
40635;SDS011;26642;55.766;37.828;2023-06-14T11:59:50;3.75;;;2.30;;
40635;SDS011;26642;55.766;37.828;2023-06-14T12:02:17;3.60;;;2.60;;
40635;SDS011;26642;55.766;37.828;2023-06-14T12:04:46;6.60;;;4.25;;
40635;SDS011;26642;55.766;37.828;2023-06-14T12:07:14;4.10;;;3.60;;
40635;SDS011;26642;55.766;37.828;2023-06-14T12:09:43;4.85;;;3.30;;
40635;SDS011;26642;55.766;37.828;2023-06-14T12:12:34;3.40;;;2.90;;
40635;SDS011;26642;55.766;37.828;2023-06-14T12:15:06;3.47;;;2.70;;
40635;SDS011;26642;55.766;37.828;2023-06-14T12:17:33;3.92;;;2.88;;
40635;SDS011;26642;55.766;37.828;2023-06-14T12:20:04;5.03;;;2.83;;
40635;SDS011;26642;55.766;37.828;2023-06-14T12:22:54;5.32;;;2.65;;
40635;SDS011;26642;55.766;37.828;2023-06-14T12:27:59;3.78;;;2.40;;
40635;SDS011;26642;55.766;37.828;2023-06-14T12:30:30;3.00;;;2.17;;
40635;SDS011;26642;55.766;37.828;2023-06-14T12:32:56;5.57;;;2.83;;
40635;SDS011;26642;55.766;37.828;2023-06-14T12:35:22;3.65;;;2.65;;
40635;SDS011;26642;55.766;37.828;2023-06-14T12:37:48;2.92;;;2.60;;
40635;SDS011;26642;55.766;37.828;2023-06-14T12:40:14;2.58;;;2.35;;
40635;SDS011;26642;55.766;37.828;2023-06-14T12:42:40;3.00;;;2.50;;
40635;SDS011;26642;55.766;37.828;2023-06-14T12:45:07;3.92;;;2.45;;
40635;SDS011;26642;55.766;37.828;2023-06-14T12:47:33;2.65;;;2.45;;
40635;SDS011;26642;55.766;37.828;2023-06-14T12:49:59;2.80;;;2.50;;
40635;SDS011;26642;55.766;37.828;2023-06-14T12:52:26;5.93;;;3.08;;
40635;SDS011;26642;55.766;37.828;2023-06-14T12:54:52;4.05;;;2.30;;
40635;SDS011;26642;55.766;37.828;2023-06-14T12:57:18;2.92;;;2.55;;
40635;SDS011;26642;55.766;37.828;2023-06-14T12:59:44;3.38;;;2.58;;
40635;SDS011;26642;55.766;37.828;2023-06-14T13:02:16;2.85;;;2.20;;
40635;SDS011;26642;55.766;37.828;2023-06-14T13:04:43;2.72;;;2.17;;
40635;SDS011;26642;55.766;37.828;2023-06-14T13:07:10;2.90;;;2.70;;
40635;SDS011;26642;55.766;37.828;2023-06-14T13:09:36;3.13;;;2.30;;
40635;SDS011;26642;55.766;37.828;2023-06-14T13:12:02;4.57;;;2.67;;
40635;SDS011;26642;55.766;37.828;2023-06-14T13:14:28;4.97;;;2.55;;
40635;SDS011;26642;55.766;37.828;2023-06-14T13:16:54;3.75;;;2.47;;
40635;SDS011;26642;55.766;37.828;2023-06-14T13:19:21;3.58;;;2.47;;
40635;SDS011;26642;55.766;37.828;2023-06-14T13:21:47;3.33;;;2.53;;
40635;SDS011;26642;55.766;37.828;2023-06-14T13:24:13;4.00;;;2.25;;
40635;SDS011;26642;55.766;37.828;2023-06-14T13:26:39;5.05;;;2.42;;
40635;SDS011;26642;55.766;37.828;2023-06-14T13:29:06;2.72;;;2.40;;
40635;SDS011;26642;55.766;37.828;2023-06-14T13:31:31;2.85;;;2.50;;
40635;SDS011;26642;55.766;37.828;2023-06-14T13:33:58;4.20;;;2.80;;
40635;SDS011;26642;55.766;37.828;2023-06-14T13:36:24;2.40;;;2.20;;
40635;SDS011;26642;55.766;37.828;2023-06-14T13:38:50;3.45;;;2.50;;
40635;SDS011;26642;55.766;37.828;2023-06-14T13:41:17;5.05;;;2.90;;
40635;SDS011;26642;55.766;37.828;2023-06-14T13:43:43;2.67;;;2.47;;
40635;SDS011;26642;55.766;37.828;2023-06-14T13:46:09;5.78;;;2.90;;
40635;SDS011;26642;55.766;37.828;2023-06-14T13:48:35;3.70;;;2.58;;
40635;SDS011;26642;55.766;37.828;2023-06-14T13:51:01;3.58;;;2.45;;
40635;SDS011;26642;55.766;37.828;2023-06-14T13:53:29;3.67;;;2.55;;
40635;SDS011;26642;55.766;37.828;2023-06-14T13:55:55;2.45;;;2.22;;
40635;SDS011;26642;55.766;37.828;2023-06-14T13:58:21;2.67;;;2.13;;
40635;SDS011;26642;55.766;37.828;2023-06-14T14:00:49;3.33;;;2.20;;
40635;SDS011;26642;55.766;37.828;2023-06-14T14:03:15;2.50;;;2.30;;
40635;SDS011;26642;55.766;37.828;2023-06-14T14:05:41;2.53;;;2.28;;
40635;SDS011;26642;55.766;37.828;2023-06-14T14:08:07;5.88;;;2.50;;
40635;SDS011;26642;55.766;37.828;2023-06-14T14:10:33;3.33;;;2.08;;
40635;SDS011;26642;55.766;37.828;2023-06-14T14:12:59;2.50;;;2.30;;
40635;SDS011;26642;55.766;37.828;2023-06-14T14:15:26;2.20;;;2.10;;
40635;SDS011;26642;55.766;37.828;2023-06-14T14:17:53;3.15;;;2.20;;
40635;SDS011;26642;55.766;37.828;2023-06-14T14:20:22;4.10;;;2.50;;
40635;SDS011;26642;55.766;37.828;2023-06-14T14:22:48;2.95;;;2.10;;
40635;SDS011;26642;55.766;37.828;2023-06-14T14:25:14;3.65;;;2.35;;
40635;SDS011;26642;55.766;37.828;2023-06-14T14:27:40;5.03;;;2.63;;
40635;SDS011;26642;55.766;37.828;2023-06-14T14:30:07;3.28;;;2.30;;
40635;SDS011;26642;55.766;37.828;2023-06-14T14:32:33;3.15;;;2.50;;
40635;SDS011;26642;55.766;37.828;2023-06-14T14:34:59;4.32;;;2.15;;
40635;SDS011;26642;55.766;37.828;2023-06-14T14:37:25;3.47;;;2.17;;
40635;SDS011;26642;55.766;37.828;2023-06-14T14:39:51;3.50;;;2.35;;
40635;SDS011;26642;55.766;37.828;2023-06-14T14:42:17;3.67;;;2.55;;
40635;SDS011;26642;55.766;37.828;2023-06-14T14:44:43;4.38;;;2.47;;
40635;SDS011;26642;55.766;37.828;2023-06-14T14:47:09;6.13;;;2.45;;
40635;SDS011;26642;55.766;37.828;2023-06-14T14:49:35;4.65;;;2.33;;
40635;SDS011;26642;55.766;37.828;2023-06-14T14:52:01;3.58;;;2.40;;
40635;SDS011;26642;55.766;37.828;2023-06-14T14:54:27;2.85;;;2.45;;
40635;SDS011;26642;55.766;37.828;2023-06-14T14:56:54;2.20;;;2.00;;
40635;SDS011;26642;55.766;37.828;2023-06-14T14:59:20;4.88;;;2.63;;
40635;SDS011;26642;55.766;37.828;2023-06-14T15:01:47;2.88;;;2.40;;
40635;SDS011;26642;55.766;37.828;2023-06-14T15:04:13;5.38;;;2.45;;
40635;SDS011;26642;55.766;37.828;2023-06-14T15:06:39;3.08;;;2.55;;
40635;SDS011;26642;55.766;37.828;2023-06-14T15:09:05;4.22;;;2.53;;